Time;durP1;ratioP1;P1;durP2;ratioP2;P2;SDS_P1;SDS_P2;PMS_P1;PMS_P2;Temp;Humidity;BMP_temperature;BMP_pressure;BME280_temperature;BME280_humidity;BME280_pressure;Samples;Min_cycle;Max_cycle;Signal;HPM_P1;HPM_P2
2022/08/11 00:01:51;;;;;;;1.33;1.00;;;27.70;41.80;;;-147.20;100.00;58430.41;5094645;28;20052;-10
2022/08/11 00:04:22;;;;;;;0.80;0.80;;;27.80;41.80;;;-147.20;100.00;58430.41;5096310;28;20063;-9
2022/08/11 00:06:49;;;;;;;0.90;0.90;;;27.70;41.80;;;-147.20;100.00;58430.41;5096208;28;20135;-9
2022/08/11 00:09:20;;;;;;;1.05;0.95;;;27.70;41.80;;;-147.20;100.00;58430.41;5080827;28;20051;-10
2022/08/11 00:11:50;;;;;;;1.65;0.85;;;27.70;42.30;;;-147.20;100.00;58430.41;5096107;28;20473;-10
2022/08/11 00:14:23;;;;;;;1.13;1.02;;;27.70;41.80;;;-147.20;100.00;58430.41;5115973;28;20071;-10
2022/08/11 00:17:02;;;;;;;1.13;0.93;;;27.70;41.80;;;-147.20;100.00;58430.41;5115871;28;20047;-10
2022/08/11 00:19:33;;;;;;;0.98;0.77;;;27.70;41.70;;;-147.20;100.00;58430.41;5097010;28;20393;-10
2022/08/11 00:22:02;;;;;;;0.80;0.80;;;27.70;41.80;;;-147.20;100.00;58430.41;5096936;28;20052;-10
2022/08/11 00:24:38;;;;;;;1.10;1.00;;;27.70;41.80;;;-147.20;100.00;58430.41;5115920;28;20477;-10
2022/08/11 00:27:05;;;;;;;1.10;1.00;;;27.70;41.80;;;-147.20;100.00;58430.41;5097439;28;20055;-10
2022/08/11 00:29:32;;;;;;;1.02;0.93;;;27.70;41.80;;;-147.20;100.00;58430.41;5096481;28;20052;-10
2022/08/11 00:32:03;;;;;;;1.08;0.98;;;27.70;41.80;;;-147.20;100.00;58430.41;5096037;28;20379;-10
2022/08/11 00:34:34;;;;;;;1.45;0.85;;;27.70;41.90;;;-147.20;100.00;58430.41;5096034;28;20055;-9
2022/08/11 00:37:06;;;;;;;1.07;1.00;;;27.70;41.90;;;-147.20;100.00;58430.41;5095946;28;20052;-9
2022/08/11 00:39:41;;;;;;;1.05;0.95;;;27.70;41.90;;;-147.20;100.00;58430.41;5115124;28;20304;-10
2022/08/11 00:42:37;;;;;;;1.13;0.90;;;27.70;41.90;;;-147.20;100.00;58430.41;5096563;28;20094;-10
2022/08/11 00:45:14;;;;;;;1.20;1.10;;;27.70;41.80;;;-147.20;100.00;58430.41;5115364;28;20048;-10
2022/08/11 00:48:27;;;;;;;0.98;0.88;;;27.70;41.90;;;-147.20;100.00;58430.41;5097044;28;20105;-10
2022/08/11 00:51:39;;;;;;;1.60;1.00;;;27.60;41.90;;;-147.20;100.00;58430.41;5097416;28;20047;-9
2022/08/11 00:54:57;;;;;;;1.08;0.98;;;27.60;41.90;;;-147.20;100.00;58430.41;5115270;28;20047;-10
2022/08/11 00:58:06;;;;;;;0.88;0.88;;;27.60;42.00;;;-147.20;100.00;58430.41;5097253;28;20055;-10
2022/08/11 01:00:48;;;;;;;0.85;0.85;;;27.60;42.00;;;-147.20;100.00;58430.41;5096984;28;20454;-10
2022/08/11 01:03:56;;;;;;;0.90;0.90;;;27.60;42.00;;;-147.20;100.00;58430.41;5096801;28;20135;-10
2022/08/11 01:07:03;;;;;;;1.15;0.90;;;27.60;41.90;;;-147.20;100.00;58430.41;5094201;28;20044;-10
2022/08/11 01:09:38;;;;;;;1.08;0.98;;;27.60;42.00;;;-147.20;100.00;58430.41;5114774;28;20052;-10
2022/08/11 01:12:28;;;;;;;2.95;1.38;;;27.60;41.90;;;-147.20;100.00;58430.41;5114996;28;20051;-10
2022/08/11 01:15:39;;;;;;;1.02;0.90;;;27.70;42.00;;;-147.20;100.00;58430.41;5115029;28;20078;-10
2022/08/11 01:18:49;;;;;;;1.52;0.90;;;27.60;41.90;;;-147.20;100.00;58430.41;5094426;28;20040;-10
2022/08/11 01:21:54;;;;;;;1.10;1.00;;;27.60;42.00;;;-147.20;100.00;58430.41;5114839;28;20055;-10
2022/08/11 01:25:16;;;;;;;1.23;1.08;;;27.60;42.00;;;-147.20;100.00;58430.41;5115058;28;20450;-10
2022/08/11 01:28:21;;;;;;;1.33;0.90;;;27.60;42.00;;;-147.20;100.00;58430.41;5114801;28;20135;-10
2022/08/11 01:31:19;;;;;;;1.00;0.90;;;27.60;42.10;;;-147.20;100.00;58430.41;5115040;28;20052;-10
2022/08/11 01:34:39;;;;;;;1.10;0.70;;;27.60;42.00;;;-147.20;100.00;58430.41;5114588;28;20150;-10
2022/08/11 01:37:51;;;;;;;2.88;1.00;;;27.60;42.10;;;-147.20;100.00;58430.41;5027487;28;20082;-10
2022/08/11 01:41:24;;;;;;;1.27;1.00;;;27.60;42.10;;;-147.20;100.00;58430.41;5114440;28;20453;-10
2022/08/11 01:50:29;;;;;;;1.17;1.02;;;27.60;42.10;;;-147.20;100.00;58430.41;5114451;28;20508;-10
2022/08/11 01:53:03;;;;;;;1.05;0.93;;;27.60;42.20;;;-147.20;100.00;58430.41;5115006;28;20071;-10
2022/08/11 01:56:03;;;;;;;1.30;1.00;;;27.50;42.10;;;-147.20;100.00;58430.41;5094585;28;20048;-9
2022/08/11 01:58:46;;;;;;;0.90;0.90;;;27.60;42.10;;;-147.20;100.00;58430.41;5095880;28;20105;-10
2022/08/11 02:01:37;;;;;;;0.80;0.80;;;27.50;42.20;;;-147.20;100.00;58430.41;5095929;28;20135;-10
2022/08/11 02:04:17;;;;;;;1.10;1.00;;;27.50;42.20;;;-147.20;100.00;58430.41;5096046;28;20078;-10
2022/08/11 02:07:01;;;;;;;1.58;1.02;;;27.50;42.20;;;-147.20;100.00;58430.41;5114110;28;20160;-10
2022/08/11 02:09:50;;;;;;;0.90;0.90;;;27.50;42.20;;;-147.20;100.00;58430.41;5113821;28;20502;-10
2022/08/11 02:12:59;;;;;;;1.17;1.10;;;27.50;42.20;;;-147.20;100.00;58430.41;5096041;28;20508;-10
2022/08/11 02:15:44;;;;;;;0.98;0.98;;;27.50;42.20;;;-147.20;100.00;58430.41;5073776;28;20229;-10
2022/08/11 02:23:38;;;;;;;1.20;1.10;;;27.50;42.20;;;-147.20;100.00;58430.41;5095334;28;20066;-10
2022/08/11 02:24:24;;;;;;;1.52;1.05;;;27.50;42.20;;;-147.20;100.00;58430.41;5098326;28;20050;-10
2022/08/11 02:27:03;;;;;;;1.25;1.15;;;27.50;42.30;;;-147.20;100.00;58430.41;5093993;28;20531;-10
2022/08/11 02:30:06;;;;;;;1.13;1.00;;;27.50;42.30;;;-147.20;100.00;58430.41;5094435;28;20056;-10
2022/08/11 02:33:23;;;;;;;1.30;1.00;;;27.50;42.30;;;-147.20;100.00;58430.41;5109659;28;20067;-9
2022/08/11 02:36:07;;;;;;;0.80;0.80;;;27.40;42.20;;;-147.20;100.00;58430.41;5074233;28;20047;-10
2022/08/11 02:39:04;;;;;;;0.95;0.95;;;27.40;42.20;;;-147.20;100.00;58430.41;5094637;28;20549;-10
2022/08/11 02:44:50;;;;;;;1.60;1.20;;;27.40;42.30;;;-147.20;100.00;58430.41;5113471;28;20067;-10
2022/08/11 02:47:37;;;;;;;0.95;0.95;;;27.40;42.30;;;-147.20;100.00;58430.41;5095190;28;20036;-10
2022/08/11 02:50:18;;;;;;;0.95;0.82;;;27.40;42.30;;;-147.20;100.00;58430.41;5095510;28;20047;-10
2022/08/11 02:53:12;;;;;;;2.33;1.10;;;27.40;42.30;;;-147.20;100.00;58430.41;5113339;28;20590;-10
2022/08/11 02:56:12;;;;;;;0.90;0.90;;;27.40;42.40;;;-147.20;100.00;58430.41;5095138;28;20058;-10
2022/08/11 03:02:07;;;;;;;0.90;0.90;;;27.40;42.40;;;-147.20;100.00;58430.41;5096451;28;20073;-10
2022/08/11 03:05:10;;;;;;;1.25;1.00;;;27.40;42.40;;;-147.20;100.00;58430.41;5113069;28;20047;-9
2022/08/11 03:07:39;;;;;;;1.00;0.90;;;27.40;42.40;;;-147.20;100.00;58430.41;5113465;28;20054;-10
2022/08/11 03:10:13;;;;;;;1.10;1.00;;;27.40;42.40;;;-147.20;100.00;58430.41;5113127;28;20497;-10
2022/08/11 03:19:36;;;;;;;1.13;0.98;;;27.40;42.40;;;-147.20;100.00;58430.41;5097459;28;20134;-10
2022/08/11 03:22:18;;;;;;;1.08;0.98;;;27.40;42.40;;;-147.20;100.00;58430.41;5075509;28;20101;-10
2022/08/11 03:25:12;;;;;;;1.58;1.00;;;27.40;42.50;;;-147.20;100.00;58430.41;5094566;28;20441;-10
2022/08/11 03:28:08;;;;;;;1.10;1.00;;;27.40;42.40;;;-147.20;100.00;58430.41;5092613;28;20036;-10
2022/08/11 03:31:08;;;;;;;1.25;1.15;;;27.40;42.40;;;-147.20;100.00;58430.41;5063005;28;20062;-10
2022/08/11 03:44:03;;;;;;;1.48;1.02;;;27.40;42.50;;;-147.20;100.00;58430.41;5097236;28;20074;-10
2022/08/11 03:47:00;;;;;;;1.17;1.08;;;27.40;42.50;;;-147.20;100.00;58430.41;5094913;28;20039;-10
2022/08/11 03:50:22;;;;;;;1.73;1.20;;;27.40;42.50;;;-147.20;100.00;58430.41;5093072;28;20082;-10
2022/08/11 03:53:33;;;;;;;1.30;1.10;;;27.40;42.50;;;-147.20;100.00;58430.41;5112624;28;20058;-10
2022/08/11 03:56:38;;;;;;;1.98;1.13;;;27.40;42.50;;;-147.20;100.00;58430.41;5094715;28;20048;-9
2022/08/11 03:59:29;;;;;;;1.25;1.15;;;27.40;42.50;;;-147.20;100.00;58430.41;5112514;28;20048;-10
2022/08/11 04:02:44;;;;;;;1.15;0.90;;;27.40;42.50;;;-147.20;100.00;58430.41;5112481;28;20054;-10
2022/08/11 04:05:38;;;;;;;1.38;1.10;;;27.40;42.50;;;-147.20;100.00;58430.41;5112480;28;20044;-10
2022/08/11 04:08:30;;;;;;;1.92;0.90;;;27.40;42.50;;;-147.20;100.00;58430.41;5112537;28;20489;-9
2022/08/11 04:11:46;;;;;;;1.08;1.02;;;27.40;42.40;;;-147.20;100.00;58430.41;5112343;28;20074;-10
2022/08/11 04:18:30;;;;;;;0.90;0.90;;;27.50;42.30;;;-147.20;100.00;58430.41;5112525;28;20412;-10
2022/08/11 04:21:08;;;;;;;1.58;1.13;;;27.60;42.20;;;-147.20;100.00;58430.41;5112078;28;20055;-10
2022/08/11 04:24:07;;;;;;;1.40;1.30;;;27.60;42.10;;;-147.20;100.00;58430.41;5112146;28;20048;-10
2022/08/11 04:27:01;;;;;;;1.50;1.20;;;27.60;42.10;;;-147.20;100.00;58430.41;5112137;28;20085;-9
2022/08/11 04:30:03;;;;;;;1.30;1.08;;;27.70;42.10;;;-147.20;100.00;58430.41;5093308;28;20480;-10
2022/08/11 04:32:57;;;;;;;2.22;1.20;;;27.70;42.00;;;-147.20;100.00;58430.41;5077069;28;20048;-10
2022/08/11 04:36:08;;;;;;;1.17;1.08;;;27.70;42.00;;;-147.20;100.00;58430.41;5112297;28;20039;-10
2022/08/11 04:39:34;;;;;;;1.30;1.20;;;27.80;42.00;;;-147.20;100.00;58430.41;5112173;28;20382;-10
2022/08/11 04:45:27;;;;;;;1.15;1.00;;;27.90;42.00;;;-147.20;100.00;58430.41;5115429;28;20152;-10
2022/08/11 05:01:42;;;;;;;1.10;1.10;;;28.00;41.80;;;-147.20;100.00;58430.41;5099688;28;20054;-10
2022/08/11 05:08:13;;;;;;;1.70;1.02;;;28.10;41.60;;;-147.20;100.00;58430.41;5115292;28;20104;-10
2022/08/11 05:11:01;;;;;;;0.93;0.93;;;28.20;41.50;;;-147.20;100.00;58430.41;5097035;28;20401;-10
2022/08/11 05:37:01;;;;;;;1.02;1.02;;;28.80;40.90;;;-147.20;100.00;58430.41;5098913;28;20047;-10
2022/08/11 05:57:06;;;;;;;1.20;1.00;;;29.10;40.50;;;-147.20;100.00;58430.41;5098707;28;20054;-10
2022/08/11 05:59:33;;;;;;;1.17;1.08;;;29.20;40.50;;;-147.20;100.00;58430.41;5109675;28;20051;-10
2022/08/11 06:02:05;;;;;;;1.10;1.00;;;29.20;40.40;;;-147.20;100.00;58430.41;5095283;28;20055;-10
2022/08/11 06:04:32;;;;;;;0.80;0.80;;;29.30;40.40;;;-147.20;100.00;58430.41;5095901;28;20466;-10
2022/08/11 06:07:08;;;;;;;1.20;1.10;;;29.30;40.40;;;-147.20;100.00;58430.41;5113665;28;20046;-10
2022/08/11 06:09:36;;;;;;;0.98;0.80;;;29.30;40.30;;;-147.20;100.00;58430.41;5078021;28;20436;-10
2022/08/11 06:12:07;;;;;;;1.10;1.00;;;29.40;40.30;;;-147.20;100.00;58430.41;5095020;28;20044;-10
2022/08/11 06:14:41;;;;;;;0.90;0.90;;;29.40;40.30;;;-147.20;100.00;58430.41;5112373;28;20389;-10
2022/08/11 06:17:08;;;;;;;1.05;1.00;;;29.50;40.30;;;-147.20;100.00;58430.41;5095125;28;20048;-11
2022/08/11 06:19:48;;;;;;;1.42;1.13;;;29.50;40.20;;;-147.20;100.00;58430.41;5094570;28;20055;-10
2022/08/11 06:22:20;;;;;;;0.90;0.90;;;29.50;40.10;;;-147.20;100.00;58430.41;5095581;28;20051;-10
2022/08/11 06:24:59;;;;;;;0.95;0.95;;;29.60;40.10;;;-147.20;100.00;58430.41;5113985;28;20458;-10
2022/08/11 06:27:29;;;;;;;0.90;0.90;;;29.60;40.00;;;-147.20;100.00;58430.41;5113478;28;20039;-11
2022/08/11 06:29:56;;;;;;;0.95;0.93;;;29.60;40.00;;;-147.20;100.00;58430.41;5113648;28;20064;-10
2022/08/11 06:32:32;;;;;;;1.58;1.10;;;29.60;40.00;;;-147.20;100.00;58430.41;5113930;28;20056;-10
2022/08/11 06:35:16;;;;;;;1.55;1.00;;;29.70;39.90;;;-147.20;100.00;58430.41;5113643;28;20051;-10
2022/08/11 06:38:05;;;;;;;1.75;1.10;;;29.70;39.90;;;-147.20;100.00;58430.41;5113251;28;20055;-10
2022/08/11 06:41:29;;;;;;;1.45;0.90;;;29.80;39.80;;;-147.20;100.00;58430.41;5093360;28;20048;-10
2022/08/11 06:43:45;;;;;;;1.02;1.00;;;29.80;39.80;;;-147.20;100.00;58430.41;5111236;28;20135;-10
2022/08/11 06:46:14;;;;;;;0.95;0.90;;;29.90;39.80;;;-147.20;100.00;58430.41;5113454;28;20039;-10
2022/08/11 06:48:43;;;;;;;1.00;0.90;;;29.90;39.70;;;-147.20;100.00;58430.41;5093890;28;20450;-10
2022/08/11 06:51:13;;;;;;;1.00;0.90;;;29.90;39.60;;;-147.20;100.00;58430.41;5113482;28;20516;-9
2022/08/11 06:53:49;;;;;;;1.08;0.98;;;30.00;39.60;;;-147.20;100.00;58430.41;5095633;28;20039;-10
2022/08/11 07:02:20;;;;;;;1.27;1.17;;;30.10;39.40;;;-147.20;100.00;58430.41;5095424;28;20078;-10
2022/08/11 07:04:51;;;;;;;2.00;1.15;;;30.10;39.30;;;-147.20;100.00;58430.41;5095108;28;20047;-10
2022/08/11 07:16:53;;;;;;;1.13;1.05;;;30.30;39.30;;;-147.20;100.00;58430.41;5097500;28;20047;-10
2022/08/11 07:31:06;;;;;;;1.38;1.00;;;30.20;39.20;;;-147.20;100.00;58430.41;5113163;28;20051;-10
2022/08/11 07:33:44;;;;;;;0.90;0.90;;;30.30;39.20;;;-147.20;100.00;58430.41;5094674;28;20054;-10
2022/08/11 07:36:11;;;;;;;1.27;1.10;;;30.30;39.30;;;-147.20;100.00;58430.41;5094829;28;20043;-10
2022/08/11 07:38:43;;;;;;;0.95;0.90;;;30.20;39.30;;;-147.20;100.00;58430.41;5094735;28;20388;-10
2022/08/11 07:41:18;;;;;;;1.90;1.27;;;30.20;39.20;;;-147.20;100.00;58430.41;5094625;28;20067;-10
2022/08/11 07:43:48;;;;;;;2.53;1.00;;;30.30;39.30;;;-147.20;100.00;58430.41;5113222;28;20052;-10
2022/08/11 07:54:32;;;;;;;1.25;1.15;;;30.20;39.30;;;-147.20;100.00;58430.41;5095295;28;20058;-10
2022/08/11 07:56:59;;;;;;;1.45;1.05;;;30.20;39.30;;;-147.20;100.00;58430.41;5092176;28;20054;-10
2022/08/11 08:18:43;;;;;;;1.27;1.10;;;30.20;39.30;;;-147.20;100.00;58430.41;5115725;28;20096;-10
2022/08/11 08:21:13;;;;;;;1.58;1.15;;;30.20;39.30;;;-147.20;100.00;58430.41;5097456;28;20116;-10
2022/08/11 08:23:46;;;;;;;1.40;1.30;;;30.20;39.40;;;-147.20;100.00;58430.41;5097895;28;20117;-10
2022/08/11 08:31:50;;;;;;;1.30;1.17;;;30.10;39.50;;;-147.20;100.00;58430.41;5100295;28;20039;-10
2022/08/11 08:34:17;;;;;;;1.88;0.90;;;30.10;39.60;;;-147.20;100.00;58430.41;5115620;28;20051;-10
2022/08/11 08:36:49;;;;;;;0.93;0.93;;;30.00;39.60;;;-147.20;100.00;58430.41;5115544;28;20126;-10
2022/08/11 08:39:20;;;;;;;1.40;1.20;;;30.00;39.60;;;-147.20;100.00;58430.41;5097302;28;20059;-10
2022/08/11 08:41:51;;;;;;;1.83;1.10;;;30.00;39.80;;;-147.20;100.00;58430.41;5115730;28;20056;-10
2022/08/11 08:44:20;;;;;;;1.30;1.20;;;29.90;39.80;;;-147.20;100.00;58430.41;5097287;28;20070;-10
2022/08/11 08:46:54;;;;;;;1.58;1.23;;;29.90;39.80;;;-147.20;100.00;58430.41;5097058;28;20516;-11
2022/08/11 08:49:27;;;;;;;4.68;1.10;;;29.90;39.90;;;-147.20;100.00;58430.41;5115390;28;20536;-10
2022/08/11 08:51:55;;;;;;;1.55;1.02;;;29.90;40.00;;;-147.20;100.00;58430.41;5095606;28;20055;-10
2022/08/11 08:54:28;;;;;;;1.30;1.20;;;29.80;40.00;;;-147.20;100.00;58430.41;5097012;28;20047;-10
2022/08/11 08:56:56;;;;;;;1.20;1.10;;;29.80;40.00;;;-147.20;100.00;58430.41;5094765;28;20048;-10
2022/08/11 08:59:25;;;;;;;1.27;1.10;;;29.70;40.00;;;-147.20;100.00;58430.41;5097198;28;20381;-10
2022/08/11 09:02:04;;;;;;;1.58;1.30;;;29.70;40.20;;;-147.20;100.00;58430.41;5097066;28;20477;-10
2022/08/11 09:04:31;;;;;;;1.63;1.08;;;29.70;40.20;;;-147.20;100.00;58430.41;5115540;28;20134;-10
2022/08/11 09:07:10;;;;;;;1.15;1.00;;;29.60;40.20;;;-147.20;100.00;58430.41;5094976;28;20056;-10
2022/08/11 09:09:40;;;;;;;2.45;1.20;;;29.60;40.30;;;-147.20;100.00;58430.41;5095700;28;20067;-10
2022/08/11 09:12:06;;;;;;;1.38;1.00;;;29.60;40.30;;;-147.20;100.00;58430.41;5095555;28;20094;-10
2022/08/11 09:17:23;;;;;;;2.83;1.20;;;29.40;40.40;;;-147.20;100.00;58430.41;5097659;28;20050;-10
2022/08/11 09:20:04;;;;;;;2.05;1.08;;;29.40;40.40;;;-147.20;100.00;58430.41;5095144;28;20131;-10
2022/08/11 09:28:16;;;;;;;1.27;1.10;;;29.30;40.50;;;-147.20;100.00;58430.41;5099464;28;20062;-10
2022/08/11 09:30:47;;;;;;;1.20;1.10;;;29.40;40.60;;;-147.20;100.00;58430.41;5114672;28;20060;-10
2022/08/11 09:33:15;;;;;;;1.15;1.10;;;29.30;40.60;;;-147.20;100.00;58430.41;5096395;28;20055;-10
2022/08/11 09:35:45;;;;;;;1.60;1.10;;;29.30;40.60;;;-147.20;100.00;58430.41;5114449;28;20053;-10
2022/08/11 09:41:04;;;;;;;3.25;1.40;;;29.30;40.70;;;-147.20;100.00;58430.41;5114484;28;20048;-10
2022/08/11 09:46:16;;;;;;;1.33;1.23;;;29.20;40.80;;;-147.20;100.00;58430.41;5099189;28;20070;-10
2022/08/11 09:48:44;;;;;;;1.27;1.13;;;29.20;40.80;;;-147.20;100.00;58430.41;5094819;28;20052;-10
2022/08/11 09:51:12;;;;;;;1.33;1.23;;;29.20;40.80;;;-147.20;100.00;58430.41;5114370;28;20051;-11
2022/08/11 09:53:40;;;;;;;2.50;1.10;;;29.20;40.80;;;-147.20;100.00;58430.41;5114386;28;20051;-10
2022/08/11 09:58:59;;;;;;;1.30;1.20;;;29.20;40.80;;;-147.20;100.00;58430.41;5098682;28;20051;-10
2022/08/11 10:01:30;;;;;;;1.23;1.10;;;29.20;40.90;;;-147.20;100.00;58430.41;5096049;28;20071;-10
2022/08/11 10:04:14;;;;;;;1.15;1.02;;;29.10;40.80;;;-147.20;100.00;58430.41;5114325;28;20044;-11
2022/08/11 10:07:00;;;;;;;1.50;1.20;;;29.20;40.90;;;-147.20;100.00;58430.41;5096037;28;20404;-10
2022/08/11 10:09:36;;;;;;;1.50;1.20;;;29.20;40.90;;;-147.20;100.00;58430.41;5113968;28;20512;-10
2022/08/11 10:12:06;;;;;;;1.20;1.10;;;29.10;40.80;;;-147.20;100.00;58430.41;5094867;28;20059;-10
2022/08/11 10:17:26;;;;;;;1.95;1.17;;;29.10;40.90;;;-147.20;100.00;58430.41;5098361;28;20047;-10
2022/08/11 10:19:56;;;;;;;1.30;1.10;;;29.10;40.90;;;-147.20;100.00;58430.41;5095324;28;20055;-10
2022/08/11 10:27:59;;;;;;;1.80;1.30;;;29.10;40.90;;;-147.20;100.00;58430.41;5097902;28;20409;-10
2022/08/11 10:35:58;;;;;;;1.33;1.13;;;29.10;41.00;;;-147.20;100.00;58430.41;5098179;28;20054;-10
2022/08/11 10:38:26;;;;;;;1.00;1.00;;;29.10;41.00;;;-147.20;100.00;58430.41;5113835;28;20484;-10
2022/08/11 10:43:40;;;;;;;1.35;1.20;;;29.10;41.00;;;-147.20;100.00;58430.41;5113535;28;20116;-10
2022/08/11 10:48:56;;;;;;;1.20;1.10;;;29.10;41.00;;;-147.20;100.00;58430.41;5096567;28;20432;-10
2022/08/11 10:59:42;;;;;;;1.55;1.45;;;29.00;41.00;;;-147.20;100.00;58430.41;5113353;28;20083;-10
2022/08/11 11:02:13;;;;;;;1.20;1.10;;;29.10;41.00;;;-147.20;100.00;58430.41;5093386;28;20510;-10
2022/08/11 11:04:52;;;;;;;1.13;1.10;;;29.00;41.00;;;-147.20;100.00;58430.41;5093520;28;20406;-10
2022/08/11 11:07:34;;;;;;;1.15;1.00;;;29.00;41.00;;;-147.20;100.00;58430.41;5094422;28;20051;-10
2022/08/11 11:10:07;;;;;;;1.73;1.35;;;29.00;41.00;;;-147.20;100.00;58430.41;5094834;28;20048;-10
2022/08/11 11:18:23;;;;;;;1.55;1.20;;;29.00;41.00;;;-147.20;100.00;58430.41;5113058;28;20047;-10
2022/08/11 11:21:00;;;;;;;1.13;1.02;;;29.00;41.00;;;-147.20;100.00;58430.41;5113002;28;20062;-10
2022/08/11 11:23:46;;;;;;;1.30;1.17;;;29.00;41.00;;;-147.20;100.00;58430.41;5112853;28;20043;-10
2022/08/11 11:26:56;;;;;;;0.95;0.90;;;29.00;41.00;;;-147.20;100.00;58430.41;5095249;28;20400;-10
2022/08/11 11:29:56;;;;;;;1.35;1.25;;;29.10;41.10;;;-147.20;100.00;58430.41;5094517;28;20043;-10
2022/08/11 11:32:40;;;;;;;1.55;1.42;;;29.00;41.40;;;-147.20;100.00;58430.41;5094917;28;20094;-10
2022/08/11 11:35:22;;;;;;;1.25;1.10;;;29.00;40.90;;;-147.20;100.00;58430.41;5113123;28;20055;-10
2022/08/11 11:37:49;;;;;;;1.30;1.20;;;29.00;40.90;;;-147.20;100.00;58430.41;5094854;28;20104;-10
2022/08/11 11:40:21;;;;;;;1.58;1.27;;;29.00;40.90;;;-147.20;100.00;58430.41;5112588;28;20099;-10
2022/08/11 11:42:50;;;;;;;0.95;0.95;;;29.00;40.90;;;-147.20;100.00;58430.41;5078298;28;20541;-10
2022/08/11 11:45:23;;;;;;;1.40;1.30;;;29.00;40.90;;;-147.20;100.00;58430.41;5112656;28;20048;-10
2022/08/11 11:47:51;;;;;;;1.08;1.05;;;29.00;40.90;;;-147.20;100.00;58430.41;5093898;28;20051;-10
2022/08/11 11:50:33;;;;;;;2.05;1.13;;;29.00;40.90;;;-147.20;100.00;58430.41;5116026;28;20059;-10
2022/08/11 11:53:05;;;;;;;1.38;1.20;;;29.00;40.80;;;-147.20;100.00;58430.41;5116838;28;20051;-10
2022/08/11 11:55:31;;;;;;;1.20;1.10;;;29.00;41.30;;;-147.20;100.00;58430.41;5097911;28;20048;-10
2022/08/11 12:03:34;;;;;;;1.30;1.17;;;29.00;40.90;;;-147.20;100.00;58430.41;5116071;28;20048;-10
2022/08/11 12:06:01;;;;;;;2.03;1.38;;;29.00;40.90;;;-147.20;100.00;58430.41;5116027;28;20590;-10
2022/08/11 12:08:28;;;;;;;2.72;1.20;;;29.00;41.10;;;-147.20;100.00;58430.41;5098101;28;20071;-10
2022/08/11 12:13:51;;;;;;;1.52;1.35;;;29.00;40.00;;;-147.20;100.00;58430.41;5100901;28;20126;-10
2022/08/11 12:16:19;;;;;;;2.83;1.33;;;29.00;40.00;;;-147.20;100.00;58430.41;5116548;28;20044;-10
2022/08/11 12:18:48;;;;;;;2.63;1.33;;;29.00;40.50;;;-147.20;100.00;58430.41;5115970;28;20048;-10
2022/08/11 12:21:15;;;;;;;7.10;1.30;;;29.00;40.60;;;-147.20;100.00;58430.41;5115916;28;20573;-10
2022/08/11 12:27:29;;;;;;;2.42;1.50;;;29.00;40.50;;;-147.20;100.00;58430.41;5100456;28;20109;-10
2022/08/11 12:29:26;;;;;;;1.75;1.27;;;29.00;40.00;;;-147.20;100.00;58430.41;5101735;28;20058;-10
2022/08/11 12:31:54;;;;;;;2.50;1.25;;;29.00;40.50;;;-147.20;100.00;58430.41;5115500;28;20461;-10
2022/08/11 12:34:20;;;;;;;2.53;1.27;;;29.00;40.60;;;-147.20;100.00;58430.41;5095941;28;20077;-10
2022/08/11 12:36:55;;;;;;;3.05;1.20;;;29.00;40.50;;;-147.20;100.00;58430.41;5115931;28;20490;-10
2022/08/11 12:53:32;;;;;;;4.05;1.45;;;29.00;40.40;;;-147.20;100.00;58430.41;5100009;28;20052;-10
2022/08/11 12:58:51;;;;;;;1.52;1.20;;;29.00;40.40;;;-147.20;100.00;58430.41;5115460;28;20124;-10
2022/08/11 13:06:50;;;;;;;1.15;1.08;;;29.00;40.40;;;-147.20;100.00;58430.41;5098956;28;20081;-10
2022/08/11 13:09:16;;;;;;;1.48;1.38;;;29.00;40.60;;;-147.20;100.00;58430.41;5114892;28;20493;-10
2022/08/11 13:14:31;;;;;;;1.25;1.15;;;29.00;40.50;;;-147.20;100.00;58430.41;5082632;28;20053;-10
2022/08/11 13:19:44;;;;;;;2.20;1.40;;;29.00;40.50;;;-147.20;100.00;58430.41;5114896;28;20052;-10
2022/08/11 13:22:11;;;;;;;1.20;1.10;;;29.00;40.40;;;-147.20;100.00;58430.41;5092737;28;20048;-10
2022/08/11 13:24:38;;;;;;;1.70;1.40;;;29.10;40.50;;;-147.20;100.00;58430.41;5096073;28;20051;-10
2022/08/11 13:27:05;;;;;;;1.55;1.35;;;29.10;40.50;;;-147.20;100.00;58430.41;5095534;28;20084;-10
2022/08/11 13:29:31;;;;;;;1.20;1.10;;;29.10;40.40;;;-147.20;100.00;58430.41;5114961;28;20047;-10
2022/08/11 13:32:01;;;;;;;2.00;1.25;;;29.10;40.50;;;-147.20;100.00;58430.41;5096242;28;20053;-10
2022/08/11 13:34:31;;;;;;;1.30;1.20;;;29.10;40.50;;;-147.20;100.00;58430.41;5114497;28;20386;-10
2022/08/11 13:37:01;;;;;;;2.88;1.30;;;29.10;40.50;;;-147.20;100.00;58430.41;5114616;28;20047;-10
2022/08/11 13:39:30;;;;;;;1.38;1.27;;;29.00;40.60;;;-147.20;100.00;58430.41;5114354;28;20139;-10
2022/08/11 13:41:58;;;;;;;1.52;1.05;;;29.00;40.50;;;-147.20;100.00;58430.41;5114475;28;20056;-10
2022/08/11 13:44:27;;;;;;;2.05;1.35;;;29.00;40.60;;;-147.20;100.00;58430.41;5114341;28;20047;-10
2022/08/11 13:46:57;;;;;;;1.38;1.08;;;29.00;40.60;;;-147.20;100.00;58430.41;5094726;28;20047;-10
2022/08/11 13:49:23;;;;;;;5.00;1.58;;;29.00;40.60;;;-147.20;100.00;58430.41;5094450;28;20465;-10
2022/08/11 13:51:50;;;;;;;1.63;1.30;;;29.00;40.50;;;-147.20;100.00;58430.41;5114455;28;20054;-10
2022/08/11 13:54:40;;;;;;;2.45;1.25;;;29.00;40.60;;;-147.20;100.00;58430.41;5096528;28;20061;-11
2022/08/11 13:57:10;;;;;;;2.13;1.30;;;29.00;40.50;;;-147.20;100.00;58430.41;5113753;28;20044;-10
2022/08/11 13:59:37;;;;;;;3.53;1.40;;;29.00;40.50;;;-147.20;100.00;58430.41;5095659;28;20135;-10
2022/08/11 14:02:13;;;;;;;1.73;1.10;;;29.00;40.80;;;-147.20;100.00;58430.41;5063761;28;20056;-11
2022/08/11 14:04:49;;;;;;;3.00;1.40;;;29.00;40.60;;;-147.20;100.00;58430.41;5095826;28;20101;-10
2022/08/11 14:07:23;;;;;;;1.23;1.10;;;29.10;40.70;;;-147.20;100.00;58430.41;5113387;28;20070;-10
2022/08/11 14:09:58;;;;;;;2.08;1.10;;;29.10;41.10;;;-147.20;100.00;58430.41;5094119;28;20055;-10
2022/08/11 14:15:31;;;;;;;1.10;1.00;;;29.10;41.00;;;-147.20;100.00;58430.41;5114395;28;20122;-10
2022/08/11 14:18:17;;;;;;;1.58;1.20;;;29.10;41.10;;;-147.20;100.00;58430.41;5113627;28;20056;-10
2022/08/11 14:23:41;;;;;;;1.10;1.00;;;29.00;41.00;;;-147.20;100.00;58430.41;5098775;28;20028;-10
2022/08/11 14:26:27;;;;;;;1.00;0.98;;;29.10;41.20;;;-147.20;100.00;58430.41;5113946;28;20039;-10
2022/08/11 14:29:16;;;;;;;1.30;1.10;;;29.10;41.20;;;-147.20;100.00;58430.41;5097149;28;20431;-16
2022/08/11 14:32:13;;;;;;;1.25;1.10;;;29.10;41.20;;;-147.20;100.00;58430.41;5095585;28;20401;-10
2022/08/11 14:34:42;;;;;;;3.45;1.15;;;29.20;41.30;;;-147.20;100.00;58430.41;5102748;28;20056;-10
2022/08/11 14:37:14;;;;;;;2.80;1.17;;;29.20;41.30;;;-147.20;100.00;58430.41;5094233;28;20476;-10
2022/08/11 14:47:03;;;;;;;1.88;1.20;;;29.10;41.00;;;-147.20;100.00;58430.41;5094301;28;20052;-10
2022/08/11 14:48:16;;;;;;;1.45;1.13;;;29.10;41.00;;;-147.20;100.00;58430.41;5113798;28;20054;-10
2022/08/11 14:50:42;;;;;;;1.75;1.33;;;29.10;41.10;;;-147.20;100.00;58430.41;5095174;28;20142;-10
2022/08/11 14:53:11;;;;;;;1.48;1.20;;;29.10;40.90;;;-147.20;100.00;58430.41;5095223;28;20048;-10
2022/08/11 14:58:29;;;;;;;1.35;1.17;;;29.10;41.00;;;-147.20;100.00;58430.41;5113296;28;20058;-10
2022/08/11 15:01:01;;;;;;;1.85;1.42;;;29.10;40.90;;;-147.20;100.00;58430.41;5093805;28;20129;-11
2022/08/11 15:03:32;;;;;;;1.83;1.40;;;29.10;40.90;;;-147.20;100.00;58430.41;5095097;28;20039;-10
2022/08/11 15:06:03;;;;;;;1.35;1.25;;;29.10;40.80;;;-147.20;100.00;58430.41;5095247;28;20460;-10
2022/08/11 15:08:55;;;;;;;1.40;1.30;;;29.10;41.00;;;-147.20;100.00;58430.41;5113224;28;20131;-10
2022/08/11 15:17:06;;;;;;;0.90;0.90;;;29.10;41.10;;;-147.20;100.00;58430.41;5096543;28;20044;-10
2022/08/11 15:17:09;;;;;;;1.13;1.02;;;29.10;41.00;;;-147.20;100.00;58430.41;5112889;28;20059;-10